createdAt,value
2018-02-17T00:00:59.453Z,7.71
2018-02-17T00:03:27.850Z,7.57
2018-02-17T00:05:56.228Z,7.75
2018-02-17T00:08:24.649Z,7.70
2018-02-17T00:10:53.016Z,7.56
2018-02-17T00:13:21.402Z,7.59
2018-02-17T00:15:49.882Z,7.68
2018-02-17T00:18:18.279Z,7.62
2018-02-17T00:20:47.043Z,7.67
2018-02-17T00:23:15.601Z,7.64
2018-02-17T00:25:44.000Z,7.66
2018-02-17T00:28:12.374Z,7.26
2018-02-17T00:30:40.741Z,7.41
2018-02-17T00:33:09.173Z,7.42
2018-02-17T00:35:37.568Z,7.45
2018-02-17T00:38:05.950Z,7.51
2018-02-17T00:40:34.727Z,7.20
2018-02-17T00:43:03.518Z,7.23
2018-02-17T00:45:31.888Z,7.27
2018-02-17T00:48:00.364Z,7.20
2018-02-17T00:50:28.730Z,7.22
2018-02-17T00:52:57.120Z,7.28
2018-02-17T00:55:25.491Z,7.17
2018-02-17T00:57:53.858Z,7.22
2018-02-17T01:00:22.293Z,7.08
2018-02-17T01:02:51.755Z,7.22
2018-02-17T01:05:20.140Z,7.03
2018-02-17T01:07:48.591Z,6.96
2018-02-17T01:10:17.083Z,7.02
2018-02-17T01:12:45.559Z,7.02
2018-02-17T01:15:14.037Z,6.79
2018-02-17T01:17:42.409Z,6.89
2018-02-17T01:20:10.824Z,6.93
2018-02-17T01:22:39.201Z,6.98
2018-02-17T01:25:07.650Z,6.96
2018-02-17T01:27:36.025Z,6.51
2018-02-17T01:30:04.386Z,6.65
2018-02-17T01:32:32.857Z,6.92
2018-02-17T01:35:01.635Z,6.88
2018-02-17T01:37:30.029Z,6.95
2018-02-17T01:39:58.780Z,6.94
2018-02-17T01:42:27.156Z,6.97
2018-02-17T01:44:55.541Z,7.19
2018-02-17T01:47:24.144Z,7.28
2018-02-17T01:49:52.581Z,7.25
2018-02-17T01:52:20.957Z,7.54
2018-02-17T01:54:49.332Z,7.71
2018-02-17T01:57:17.750Z,7.74
2018-02-17T01:59:46.132Z,7.83
2018-02-17T02:02:14.513Z,7.84
2018-02-17T02:04:42.881Z,7.89
2018-02-17T02:07:11.266Z,7.90
2018-02-17T02:09:39.657Z,7.85
2018-02-17T02:12:08.033Z,7.93
2018-02-17T02:14:36.391Z,8.02
2018-02-17T02:17:04.776Z,8.16
2018-02-17T02:19:33.167Z,8.24
2018-02-17T02:22:01.549Z,8.35
2018-02-17T02:24:29.923Z,8.46
2018-02-17T02:26:58.289Z,8.42
2018-02-17T02:29:26.753Z,8.63
2018-02-17T02:31:55.141Z,8.53
2018-02-17T02:34:24.543Z,8.73
2018-02-17T02:36:52.909Z,8.70
2018-02-17T02:39:21.275Z,8.66
2018-02-17T02:41:49.674Z,8.83
2018-02-17T02:44:18.045Z,8.67
2018-02-17T02:46:47.390Z,8.86
2018-02-17T02:49:15.749Z,8.79
2018-02-17T02:51:44.249Z,8.66
2018-02-17T02:54:12.620Z,8.66
2018-02-17T02:56:41.017Z,8.72
2018-02-17T02:59:09.373Z,8.70
2018-02-17T03:01:38.174Z,8.59
2018-02-17T03:04:06.627Z,8.55
2018-02-17T03:06:35.038Z,8.56
2018-02-17T03:09:03.399Z,8.57
2018-02-17T03:11:31.758Z,8.85
2018-02-17T03:14:00.117Z,8.71
2018-02-17T03:16:28.520Z,8.78
2018-02-17T03:18:56.884Z,8.89
2018-02-17T03:21:25.306Z,8.90
2018-02-17T03:23:53.676Z,8.88
2018-02-17T03:26:23.278Z,9.00
2018-02-17T03:28:51.648Z,9.04
2018-02-17T03:31:20.023Z,8.71
2018-02-17T03:33:48.393Z,8.83
2018-02-17T03:36:16.811Z,9.04
2018-02-17T03:38:46.177Z,8.96
2018-02-17T03:41:14.562Z,9.02
2018-02-17T03:43:42.968Z,8.85
2018-02-17T03:46:11.356Z,8.92
2018-02-17T03:48:39.715Z,9.12
2018-02-17T03:51:08.084Z,9.32
2018-02-17T03:53:36.482Z,9.30
2018-02-17T03:56:04.866Z,9.28
2018-02-17T03:58:33.291Z,9.17
2018-02-17T04:01:02.075Z,9.14
2018-02-17T04:03:30.471Z,9.27
2018-02-17T04:05:58.853Z,9.12
2018-02-17T04:08:27.350Z,9.29
2018-02-17T04:10:55.741Z,8.99
2018-02-17T04:13:24.127Z,9.07
2018-02-17T04:15:52.527Z,9.12
2018-02-17T04:18:21.332Z,9.20
2018-02-17T04:20:50.095Z,9.26
2018-02-17T04:23:18.449Z,9.29
2018-02-17T04:25:46.811Z,9.27
2018-02-17T04:28:15.162Z,8.89
2018-02-17T04:30:43.584Z,9.12
2018-02-17T04:33:11.938Z,9.04
2018-02-17T04:35:40.291Z,9.10
2018-02-17T04:38:09.036Z,9.01
2018-02-17T04:40:37.386Z,9.09
2018-02-17T04:43:09.042Z,8.88
2018-02-17T04:45:39.780Z,9.12
2018-02-17T04:48:13.932Z,9.09
2018-02-17T04:54:11.551Z,8.87
2018-02-17T04:56:45.402Z,9.00
2018-02-17T05:02:34.047Z,9.18
2018-02-17T05:05:08.874Z,9.21
2018-02-17T05:07:39.016Z,9.36
2018-02-17T05:10:10.364Z,9.48
2018-02-17T05:12:38.713Z,9.24
2018-02-17T05:18:34.343Z,9.37
2018-02-17T05:21:04.185Z,9.36
2018-02-17T05:23:32.582Z,9.59
2018-02-17T05:26:01.031Z,9.56
2018-02-17T05:28:47.028Z,9.69
2018-02-17T05:31:25.339Z,9.60
2018-02-17T05:34:01.943Z,9.62
2018-02-17T05:36:30.303Z,9.51
2018-02-17T05:39:00.835Z,9.61
2018-02-17T05:44:37.328Z,9.28
2018-02-17T05:47:07.910Z,9.49
2018-02-17T05:49:37.546Z,9.46
2018-02-17T05:52:05.915Z,9.42
2018-02-17T05:54:34.278Z,9.61
2018-02-17T05:57:02.700Z,9.65
2018-02-17T05:59:31.072Z,9.38
2018-02-17T06:01:59.455Z,9.47
2018-02-17T06:04:27.804Z,9.51
2018-02-17T06:06:56.244Z,9.68
2018-02-17T06:09:25.468Z,9.49
2018-02-17T06:11:53.828Z,9.59
2018-02-17T06:14:22.568Z,9.67
2018-02-17T06:16:50.917Z,9.65
2018-02-17T06:19:19.332Z,9.49
2018-02-17T06:21:47.692Z,9.37
2018-02-17T06:24:16.046Z,9.56
2018-02-17T06:26:44.512Z,9.59
2018-02-17T06:29:13.256Z,9.62
2018-02-17T06:31:41.616Z,9.69
2018-02-17T06:34:09.970Z,9.79
2018-02-17T06:36:38.342Z,9.61
2018-02-17T06:39:07.184Z,9.73
2018-02-17T06:41:35.560Z,9.86
2018-02-17T06:44:04.059Z,9.82
2018-02-17T06:46:32.442Z,9.92
2018-02-17T06:49:00.797Z,9.86
2018-02-17T06:51:29.178Z,9.92
2018-02-17T06:53:57.533Z,9.64
2018-02-17T06:56:25.885Z,9.95
2018-02-17T06:58:54.668Z,9.93
2018-02-17T07:01:23.005Z,10.07
2018-02-17T07:03:51.376Z,10.16
2018-02-17T07:06:19.739Z,10.07
2018-02-17T07:08:48.097Z,10.05
2018-02-17T07:11:16.480Z,10.19
2018-02-17T07:13:44.836Z,10.20
2018-02-17T07:16:13.672Z,10.37
2018-02-17T07:18:42.023Z,10.20
2018-02-17T07:21:10.380Z,10.34
2018-02-17T07:23:39.228Z,10.44
2018-02-17T07:26:07.704Z,10.37
2018-02-17T07:28:36.068Z,10.53
2018-02-17T07:31:04.568Z,10.65
2018-02-17T07:33:32.949Z,10.70
2018-02-17T07:36:01.302Z,10.27
2018-02-17T07:38:29.668Z,10.49
2018-02-17T07:40:58.082Z,10.61
2018-02-17T07:43:26.437Z,10.68
2018-02-17T07:45:54.793Z,10.79
2018-02-17T07:48:23.548Z,10.73
2018-02-17T07:50:51.995Z,10.85
2018-02-17T07:53:20.361Z,10.87
2018-02-17T07:55:48.756Z,10.91
2018-02-17T07:58:17.222Z,10.89
2018-02-17T08:00:45.628Z,10.87
2018-02-17T08:03:13.997Z,10.98
2018-02-17T08:05:42.367Z,11.05
2018-02-17T08:08:10.753Z,11.19
2018-02-17T08:10:39.237Z,11.10
2018-02-17T08:13:07.592Z,10.89
2018-02-17T08:15:36.000Z,10.87
2018-02-17T08:18:04.388Z,10.70
2018-02-17T08:20:32.776Z,10.89
2018-02-17T08:23:01.143Z,11.29
2018-02-17T08:25:29.519Z,11.29
2018-02-17T08:27:57.868Z,11.51
2018-02-17T08:30:26.237Z,11.72
2018-02-17T08:32:54.589Z,11.66
2018-02-17T08:35:23.116Z,11.50
2018-02-17T08:37:51.503Z,11.63
2018-02-17T08:40:19.893Z,11.85
2018-02-17T08:42:48.253Z,12.00
2018-02-17T08:45:16.652Z,12.08
2018-02-17T08:47:45.020Z,12.09
2018-02-17T08:50:13.412Z,12.26
2018-02-17T08:52:41.760Z,12.27
2018-02-17T08:55:10.112Z,12.34
2018-02-17T08:57:38.865Z,12.40
2018-02-17T09:00:07.222Z,12.53
2018-02-17T09:02:35.581Z,12.46
2018-02-17T09:05:03.941Z,12.56
2018-02-17T09:07:32.311Z,12.61
2018-02-17T09:10:01.059Z,12.56
2018-02-17T09:12:29.423Z,12.63
2018-02-17T09:14:57.793Z,12.81
2018-02-17T09:17:26.161Z,12.90
2018-02-17T09:19:54.565Z,12.90
2018-02-17T09:22:23.967Z,12.94
2018-02-17T09:24:52.321Z,12.45
2018-02-17T09:27:20.722Z,12.42
2018-02-17T09:29:49.080Z,12.69
2018-02-17T09:32:17.450Z,12.89
2018-02-17T09:34:45.861Z,12.93
2018-02-17T09:37:14.228Z,12.79
2018-02-17T09:39:42.642Z,12.91
2018-02-17T09:42:11.106Z,13.08
2018-02-17T09:44:39.480Z,13.16
2018-02-17T09:47:07.880Z,13.18
2018-02-17T09:49:36.364Z,13.20
2018-02-17T09:52:04.744Z,13.06
2018-02-17T09:54:33.195Z,12.79
2018-02-17T09:57:01.568Z,13.33
2018-02-17T09:59:29.943Z,13.59
2018-02-17T10:01:58.321Z,13.58
2018-02-17T10:04:26.683Z,13.62
2018-02-17T10:06:55.052Z,13.83
2018-02-17T10:09:23.427Z,13.78
2018-02-17T10:11:51.805Z,14.09
2018-02-17T10:14:20.666Z,14.22
2018-02-17T10:16:49.137Z,14.25
2018-02-17T10:19:17.492Z,14.08
2018-02-17T10:21:45.856Z,13.89
2018-02-17T10:24:14.224Z,13.92
2018-02-17T10:26:42.606Z,14.32
2018-02-17T10:29:10.966Z,14.50
2018-02-17T10:31:39.749Z,14.15
2018-02-17T10:34:08.598Z,14.19
2018-02-17T10:36:36.964Z,14.29
2018-02-17T10:39:05.350Z,14.17
2018-02-17T10:41:33.712Z,13.94
2018-02-17T10:44:02.073Z,14.62
2018-02-17T10:46:30.504Z,14.64
2018-02-17T10:48:58.992Z,14.92
2018-02-17T10:51:27.528Z,14.84
2018-02-17T10:53:55.896Z,14.77
2018-02-17T10:56:24.260Z,14.59
2018-02-17T10:58:53.106Z,14.94
2018-02-17T11:01:21.501Z,15.03
2018-02-17T11:03:49.870Z,14.93
2018-02-17T11:06:18.277Z,14.72
2018-02-17T11:08:46.616Z,14.89
2018-02-17T11:11:14.992Z,14.68
2018-02-17T11:13:43.359Z,14.07
2018-02-17T11:16:11.728Z,14.16
2018-02-17T11:18:40.408Z,14.74
2018-02-17T11:21:08.776Z,14.93
2018-02-17T11:23:37.204Z,15.36
2018-02-17T11:26:05.564Z,15.22
2018-02-17T11:28:33.970Z,15.10
2018-02-17T11:31:02.379Z,15.49
2018-02-17T11:33:31.177Z,15.50
2018-02-17T11:36:00.008Z,15.44
2018-02-17T11:38:28.379Z,15.32
2018-02-17T11:40:56.740Z,14.99
2018-02-17T11:43:25.142Z,14.21
2018-02-17T11:45:53.505Z,14.18
2018-02-17T11:48:21.899Z,14.11
2018-02-17T11:50:50.256Z,14.56
2018-02-17T11:53:18.674Z,14.64
2018-02-17T11:55:47.052Z,14.75
2018-02-17T11:58:15.407Z,15.05
2018-02-17T12:00:43.778Z,15.25
2018-02-17T12:03:12.179Z,15.05
2018-02-17T12:05:40.547Z,15.21
2018-02-17T12:08:08.899Z,15.09
2018-02-17T12:10:37.318Z,15.38
2018-02-17T12:13:05.674Z,15.21
2018-02-17T12:15:34.045Z,15.03
2018-02-17T12:18:02.444Z,15.38
2018-02-17T12:20:30.840Z,14.50
2018-02-17T12:22:59.197Z,14.48
2018-02-17T12:25:27.586Z,14.46
2018-02-17T12:27:55.968Z,14.57
2018-02-17T12:30:24.332Z,15.04
2018-02-17T12:32:52.684Z,14.97
2018-02-17T12:35:21.105Z,14.68
2018-02-17T12:37:49.468Z,14.89
2018-02-17T12:40:17.827Z,14.26
2018-02-17T12:42:46.192Z,13.91
2018-02-17T12:45:14.958Z,14.20
2018-02-17T12:47:43.380Z,14.15
2018-02-17T12:50:11.741Z,14.36
2018-02-17T12:52:40.101Z,14.29
2018-02-17T12:55:08.855Z,14.28
2018-02-17T12:57:37.235Z,14.33
2018-02-17T13:00:05.604Z,14.20
2018-02-17T13:02:34.036Z,14.68
2018-02-17T13:05:02.889Z,14.57
2018-02-17T13:07:31.257Z,14.41
2018-02-17T13:09:59.608Z,14.62
2018-02-17T13:12:27.960Z,14.53
2018-02-17T13:14:56.796Z,14.70
2018-02-17T13:17:25.153Z,14.65
2018-02-17T13:19:53.596Z,14.44
2018-02-17T13:22:21.941Z,13.75
2018-02-17T13:24:50.300Z,14.22
2018-02-17T13:27:18.660Z,14.36
2018-02-17T13:29:47.011Z,14.22
2018-02-17T13:32:15.873Z,13.12
2018-02-17T13:34:44.225Z,13.34
2018-02-17T13:37:12.637Z,13.58
2018-02-17T13:39:41.105Z,13.25
2018-02-17T13:42:09.484Z,12.63
2018-02-17T13:44:37.856Z,12.70
2018-02-17T13:47:06.228Z,13.04
2018-02-17T13:49:34.589Z,12.75
2018-02-17T13:52:02.955Z,12.90
2018-02-17T13:54:31.323Z,12.76
2018-02-17T13:57:00.070Z,12.91
2018-02-17T13:59:29.300Z,12.39
2018-02-17T14:01:58.056Z,12.66
2018-02-17T14:04:26.421Z,12.94
2018-02-17T14:06:54.812Z,13.27
2018-02-17T14:09:23.203Z,13.53
2018-02-17T14:11:51.665Z,13.04
2018-02-17T14:14:20.031Z,12.98
2018-02-17T14:16:48.392Z,12.66
2018-02-17T14:19:16.804Z,12.59
2018-02-17T14:21:45.167Z,13.34
2018-02-17T14:24:13.558Z,12.82
2018-02-17T14:26:41.930Z,12.85
2018-02-17T14:29:10.292Z,13.15
2018-02-17T14:31:38.657Z,12.92
2018-02-17T14:34:07.076Z,11.82
2018-02-17T14:36:35.448Z,11.71
2018-02-17T14:39:03.805Z,12.41
2018-02-17T14:41:32.179Z,11.97
2018-02-17T14:44:00.539Z,12.65
2018-02-17T14:46:29.293Z,12.40
2018-02-17T14:48:57.647Z,12.41
2018-02-17T14:51:26.330Z,11.46
2018-02-17T14:53:54.688Z,11.33
2018-02-17T14:56:23.108Z,11.04
2018-02-17T14:58:51.460Z,11.55
2018-02-17T15:01:19.819Z,12.13
2018-02-17T15:03:48.314Z,12.44
2018-02-17T15:06:16.676Z,12.42
2018-02-17T15:08:45.024Z,11.80
2018-02-17T15:11:13.397Z,11.90
2018-02-17T15:13:41.855Z,12.41
2018-02-17T15:16:10.236Z,12.73
2018-02-17T15:18:38.642Z,12.93
2018-02-17T15:21:07.003Z,12.48
2018-02-17T15:23:35.352Z,12.28
2018-02-17T15:26:03.753Z,11.51
2018-02-17T15:28:32.133Z,11.32
2018-02-17T15:31:00.504Z,11.31
2018-02-17T15:33:28.914Z,11.87
2018-02-17T15:35:57.372Z,11.79
2018-02-17T15:38:25.827Z,11.75
2018-02-17T15:40:54.188Z,11.66
2018-02-17T15:43:22.600Z,11.72
2018-02-17T15:45:51.033Z,11.35
2018-02-17T15:48:19.785Z,11.66
2018-02-17T15:50:48.151Z,12.05
2018-02-17T15:53:16.704Z,11.99
2018-02-17T15:55:45.072Z,12.21
2018-02-17T15:58:13.514Z,12.04
2018-02-17T16:00:41.992Z,12.03
2018-02-17T16:03:10.470Z,11.97
2018-02-17T16:05:38.832Z,11.38
2018-02-17T16:08:07.208Z,11.35
2018-02-17T16:10:35.564Z,11.47
2018-02-17T16:13:03.922Z,10.86
2018-02-17T16:15:32.687Z,10.72
2018-02-17T16:18:01.039Z,11.00
2018-02-17T16:20:29.399Z,11.28
2018-02-17T16:22:57.745Z,11.01
2018-02-17T16:25:26.497Z,11.27
2018-02-17T16:27:54.869Z,11.26
2018-02-17T16:30:23.239Z,11.02
2018-02-17T16:32:51.589Z,11.03
2018-02-17T16:35:19.948Z,11.00
2018-02-17T16:37:48.715Z,10.17
2018-02-17T16:40:17.160Z,10.33
2018-02-17T16:42:45.509Z,10.18
2018-02-17T16:45:13.881Z,10.12
2018-02-17T16:47:42.250Z,10.47
2018-02-17T16:50:11.007Z,10.50
2018-02-17T16:52:39.362Z,10.48
2018-02-17T16:55:07.766Z,10.74
2018-02-17T16:57:36.116Z,10.69
2018-02-17T17:00:04.576Z,10.89
2018-02-17T17:02:32.949Z,11.18
2018-02-17T17:05:01.312Z,11.17
2018-02-17T17:07:30.056Z,10.84
2018-02-17T17:09:58.420Z,10.66
2018-02-17T17:12:26.809Z,10.35
2018-02-17T17:14:55.292Z,10.71
2018-02-17T17:17:23.773Z,11.00
2018-02-17T17:19:52.158Z,11.01
2018-02-17T17:22:20.519Z,11.29
2018-02-17T17:24:48.914Z,11.17
2018-02-17T17:27:17.280Z,10.72
2018-02-17T17:29:45.664Z,10.63
2018-02-17T17:32:14.168Z,10.44
2018-02-17T17:34:42.533Z,11.10
2018-02-17T17:37:10.908Z,11.29
2018-02-17T17:39:39.275Z,11.09
2018-02-17T17:42:07.652Z,10.84
2018-02-17T17:44:36.018Z,11.15
2018-02-17T17:47:04.385Z,11.24
2018-02-17T17:49:32.746Z,11.03
2018-02-17T17:52:01.576Z,11.02
2018-02-17T17:54:29.957Z,10.91
2018-02-17T17:56:58.321Z,11.11
2018-02-17T17:59:26.748Z,11.21
2018-02-17T18:01:55.109Z,10.91
2018-02-17T18:04:23.489Z,11.28
2018-02-17T18:06:51.862Z,11.00
2018-02-17T18:09:20.237Z,10.75
2018-02-17T18:11:48.616Z,10.32
2018-02-17T18:14:16.993Z,9.81
2018-02-17T18:16:45.370Z,10.13
2018-02-17T18:19:13.750Z,9.99
2018-02-17T18:22:51.909Z,10.05
2018-02-17T18:25:20.675Z,10.35
2018-02-17T18:27:49.100Z,10.62
2018-02-17T18:30:17.512Z,10.55
2018-02-17T18:32:45.865Z,11.06
2018-02-17T18:35:14.228Z,10.62
2018-02-17T18:37:42.661Z,10.38
2018-02-17T18:40:11.022Z,10.73
2018-02-17T18:42:39.385Z,10.73
2018-02-17T18:45:07.810Z,10.85
2018-02-17T18:47:36.155Z,10.60
2018-02-17T18:50:04.525Z,10.36
2018-02-17T18:52:32.870Z,10.39
2018-02-17T18:55:01.625Z,10.58
2018-02-17T18:57:29.992Z,10.05
2018-02-17T18:59:58.348Z,10.17
2018-02-17T19:02:26.700Z,9.97
2018-02-17T19:04:55.115Z,9.50
2018-02-17T19:07:23.858Z,9.77
2018-02-17T19:09:52.609Z,9.49
2018-02-17T19:12:20.971Z,10.07
2018-02-17T19:14:49.331Z,10.16
2018-02-17T19:17:17.690Z,9.58
2018-02-17T19:19:46.105Z,9.72
2018-02-17T19:22:14.488Z,9.75
2018-02-17T19:24:42.875Z,9.66
2018-02-17T19:27:11.517Z,10.17
2018-02-17T19:29:39.935Z,10.51
2018-02-17T19:32:08.316Z,10.36
2018-02-17T19:34:36.726Z,10.41
2018-02-17T19:37:05.068Z,10.17
2018-02-17T19:39:33.542Z,10.44
2018-02-17T19:42:01.931Z,10.57
2018-02-17T19:44:30.301Z,10.57
2018-02-17T19:46:58.700Z,10.32
2018-02-17T19:49:27.065Z,10.54
2018-02-17T19:51:55.440Z,10.34
2018-02-17T19:54:23.900Z,10.50
2018-02-17T19:56:52.256Z,10.26
2018-02-17T19:59:21.036Z,10.38
2018-02-17T20:01:49.817Z,10.51
2018-02-17T20:04:18.676Z,10.78
2018-02-17T20:06:47.047Z,10.87
2018-02-17T20:09:15.444Z,10.76
2018-02-17T20:11:43.813Z,10.93
2018-02-17T20:14:12.188Z,11.03
2018-02-17T20:16:40.560Z,10.67
2018-02-17T20:19:08.909Z,10.50
2018-02-17T20:21:37.268Z,10.54
2018-02-17T20:24:06.105Z,10.41
2018-02-17T20:26:34.483Z,10.84
2018-02-17T20:29:02.847Z,10.99
2018-02-17T20:31:31.224Z,10.79
2018-02-17T20:33:59.604Z,11.14
2018-02-17T20:36:27.967Z,11.23
2018-02-17T20:38:56.391Z,11.29
2018-02-17T20:41:24.819Z,10.90
2018-02-17T20:43:53.571Z,10.58
2018-02-17T20:46:21.935Z,10.42
2018-02-17T20:48:50.305Z,10.69
2018-02-17T20:51:18.660Z,10.29
2018-02-17T20:53:47.080Z,10.00
2018-02-17T20:56:15.449Z,10.16
2018-02-17T20:58:43.795Z,10.47
2018-02-17T21:01:12.163Z,10.55
2018-02-17T21:03:40.613Z,10.29
2018-02-17T21:06:09.472Z,10.14
2018-02-17T21:08:37.812Z,9.97
2018-02-17T21:11:06.173Z,9.54
2018-02-17T21:13:35.007Z,9.37
2018-02-17T21:16:03.400Z,9.88
2018-02-17T21:18:31.744Z,10.18
2018-02-17T21:21:00.095Z,9.73
2018-02-17T21:23:28.847Z,10.16
2018-02-17T21:25:57.206Z,10.35
2018-02-17T21:28:25.601Z,10.31
2018-02-17T21:30:54.014Z,9.82
2018-02-17T21:33:22.450Z,10.01
2018-02-17T21:35:50.808Z,10.02
2018-02-17T21:38:19.212Z,10.41
2018-02-17T21:40:47.593Z,10.50
2018-02-17T21:43:15.945Z,10.74
2018-02-17T21:45:44.295Z,10.40
2018-02-17T21:48:13.067Z,10.66
2018-02-17T21:50:41.529Z,10.77
2018-02-17T21:53:09.884Z,10.65
2018-02-17T21:58:16.616Z,10.36
2018-02-17T22:00:44.986Z,10.24
2018-02-17T22:03:13.390Z,10.29
2018-02-17T22:05:41.719Z,10.05
2018-02-17T22:08:10.065Z,10.22
2018-02-17T22:10:38.437Z,10.24
2018-02-17T22:13:07.199Z,10.08
2018-02-17T22:15:35.580Z,10.25
2018-02-17T22:18:03.941Z,9.72
2018-02-17T22:20:32.968Z,9.44
2018-02-17T22:23:02.312Z,9.64
2018-02-17T22:25:30.701Z,9.86
2018-02-17T22:27:59.068Z,9.92
2018-02-17T22:30:27.448Z,9.45
2018-02-17T22:32:55.822Z,9.71
2018-02-17T22:35:24.209Z,9.95
2018-02-17T22:37:52.563Z,10.01
2018-02-17T22:40:20.941Z,10.16
2018-02-17T22:42:49.324Z,10.08
2018-02-17T22:45:17.744Z,10.10
2018-02-17T22:47:46.263Z,10.27
2018-02-17T22:50:15.028Z,10.03
2018-02-17T22:52:43.444Z,10.46
2018-02-17T22:55:11.826Z,10.04
2018-02-17T22:57:40.224Z,10.24
2018-02-17T23:00:08.599Z,10.49
2018-02-17T23:02:36.973Z,10.38
2018-02-17T23:05:05.331Z,10.19
2018-02-17T23:07:34.119Z,10.36
2018-02-17T23:10:02.517Z,10.28
2018-02-17T23:12:30.888Z,10.47
2018-02-17T23:14:59.379Z,10.58
2018-02-17T23:17:27.771Z,10.49
2018-02-17T23:19:56.711Z,10.00
2018-02-17T23:22:25.493Z,10.03
2018-02-17T23:24:53.859Z,10.17
2018-02-17T23:27:22.228Z,10.11
2018-02-17T23:29:50.600Z,10.06
2018-02-17T23:32:18.975Z,10.33
2018-02-17T23:34:47.334Z,10.10
2018-02-17T23:37:15.702Z,10.25
2018-02-17T23:39:44.062Z,10.33
2018-02-17T23:42:12.852Z,10.25
2018-02-17T23:44:41.232Z,10.16
2018-02-17T23:47:10.077Z,10.13
2018-02-17T23:49:38.446Z,10.30
2018-02-17T23:52:06.821Z,10.00
2018-02-17T23:54:35.171Z,9.87
2018-02-17T23:57:03.561Z,10.22
2018-02-17T23:59:31.998Z,10.28
